Time;durP1;ratioP1;P1;durP2;ratioP2;P2;SDS_P1;SDS_P2;PMS_P1;PMS_P2;Temp;Humidity;BMP_temperature;BMP_pressure;BME280_temperature;BME280_humidity;BME280_pressure;Samples;Min_cycle;Max_cycle;Signal;HPM_P1;HPM_P2
2021/06/12 00:01:04;;;;;;;10.10;9.40;;;20.00;67.80;;;;;;5015452;28;20931;-76
2021/06/12 00:03:35;;;;;;;10.13;9.33;;;19.90;67.70;;;;;;5015361;28;20458;-77
2021/06/12 00:06:02;;;;;;;10.47;9.30;;;19.90;67.70;;;;;;5016760;28;20509;-76
2021/06/12 00:08:28;;;;;;;10.40;9.60;;;19.90;67.70;;;;;;5017310;28;20444;-76
2021/06/12 00:10:55;;;;;;;10.70;9.80;;;19.90;67.20;;;;;;5017656;28;20467;-75
2021/06/12 00:13:22;;;;;;;10.77;8.63;;;19.90;66.60;;;;;;5015657;28;20474;-76
2021/06/12 00:15:49;;;;;;;11.00;9.97;;;19.80;66.90;;;;;;5016380;28;20553;-76
2021/06/12 00:18:15;;;;;;;11.00;9.80;;;19.70;67.50;;;;;;5016289;28;20559;-77
2021/06/12 00:20:42;;;;;;;10.60;9.80;;;19.70;67.50;;;;;;5017684;28;20442;-76
2021/06/12 00:23:09;;;;;;;10.93;10.03;;;19.60;67.40;;;;;;5018052;28;20592;-76
2021/06/12 00:25:38;;;;;;;10.37;9.37;;;19.60;67.80;;;;;;5019515;28;20491;-77
2021/06/12 00:28:05;;;;;;;10.00;9.20;;;19.50;68.00;;;;;;5015143;28;20458;-77
2021/06/12 00:30:33;;;;;;;11.23;9.87;;;19.40;68.90;;;;;;5015742;28;20463;-77
2021/06/12 00:33:00;;;;;;;10.90;10.00;;;19.40;69.70;;;;;;5019092;28;20469;-77
2021/06/12 00:35:27;;;;;;;11.17;10.30;;;19.30;70.90;;;;;;5021641;28;20491;-77
2021/06/12 00:37:54;;;;;;;11.37;10.37;;;19.30;70.20;;;;;;5016409;28;20463;-76
2021/06/12 00:40:22;;;;;;;10.80;9.70;;;19.30;69.90;;;;;;5016560;28;20473;-76
2021/06/12 00:42:49;;;;;;;10.87;9.80;;;19.20;70.10;;;;;;5020680;28;20572;-76
2021/06/12 00:45:18;;;;;;;12.03;10.00;;;19.20;70.50;;;;;;5018416;28;20456;-77
2021/06/12 00:47:56;;;;;;;10.80;9.90;;;19.20;70.30;;;;;;5021233;28;20433;-77
2021/06/12 00:50:30;;;;;;;10.63;9.83;;;19.20;70.90;;;;;;5034535;28;20473;-76
2021/06/12 00:52:57;;;;;;;10.60;9.60;;;19.10;71.00;;;;;;5020290;28;20485;-77
2021/06/12 00:55:24;;;;;;;12.50;11.30;;;19.20;69.40;;;;;;5015066;28;20492;-77
2021/06/12 00:57:51;;;;;;;11.70;10.80;;;19.20;70.50;;;;;;5015865;28;20483;-77
2021/06/12 01:00:20;;;;;;;11.70;10.60;;;19.10;71.50;;;;;;5017342;28;20955;-77
2021/06/12 01:02:49;;;;;;;11.90;10.77;;;19.00;71.40;;;;;;5022875;28;20483;-78
2021/06/12 01:05:20;;;;;;;12.73;10.37;;;19.00;71.30;;;;;;5021966;28;20505;-78
2021/06/12 01:07:47;;;;;;;12.50;11.33;;;19.00;71.40;;;;;;5023263;28;20472;-77
2021/06/12 01:10:16;;;;;;;12.50;11.40;;;19.10;70.80;;;;;;5025913;28;20437;-75
2021/06/12 01:12:50;;;;;;;11.30;10.33;;;19.10;70.40;;;;;;5028990;28;20453;-77
2021/06/12 01:15:17;;;;;;;11.60;10.50;;;19.00;70.80;;;;;;5028543;28;20485;-75
2021/06/12 01:18:10;;;;;;;12.63;10.30;;;19.00;71.40;;;;;;5023810;28;20462;-76
2021/06/12 01:21:05;;;;;;;12.27;11.10;;;19.00;72.00;;;;;;4953007;29;20510;-77
2021/06/12 01:24:11;;;;;;;12.40;11.20;;;19.00;71.70;;;;;;4953547;29;20452;-76
2021/06/12 01:27:07;;;;;;;12.40;11.40;;;19.00;72.00;;;;;;4953531;29;20443;-76
2021/06/12 01:29:57;;;;;;;12.13;10.93;;;19.00;71.50;;;;;;4953201;29;20531;-75
2021/06/12 01:32:25;;;;;;;11.60;10.70;;;19.00;71.30;;;;;;4953168;29;20934;-76
2021/06/12 01:34:55;;;;;;;12.50;11.20;;;19.10;71.20;;;;;;4952845;29;20468;-76
2021/06/12 01:37:23;;;;;;;11.57;10.57;;;19.20;70.90;;;;;;4957777;28;20485;-76
2021/06/12 01:39:50;;;;;;;11.33;10.30;;;19.20;70.00;;;;;;5015507;28;20459;-78
2021/06/12 01:42:18;;;;;;;11.57;10.47;;;19.20;69.30;;;;;;5016520;28;20520;-78
2021/06/12 01:44:45;;;;;;;12.00;10.90;;;19.30;69.70;;;;;;5018514;28;20479;-76
2021/06/12 01:47:14;;;;;;;11.33;10.13;;;19.20;69.70;;;;;;5022346;28;20424;-77
2021/06/12 01:49:42;;;;;;;11.33;10.33;;;19.30;69.50;;;;;;5016108;28;20936;-78
2021/06/12 01:52:09;;;;;;;11.47;10.43;;;19.20;69.70;;;;;;5016008;28;20962;-78
2021/06/12 01:54:37;;;;;;;10.93;10.13;;;19.20;69.90;;;;;;5013736;28;20569;-78
2021/06/12 01:57:04;;;;;;;11.50;10.40;;;19.10;70.60;;;;;;5014516;28;20474;-78
2021/06/12 01:59:31;;;;;;;11.73;10.73;;;19.00;70.40;;;;;;5014100;28;20463;-77
2021/06/12 02:02:01;;;;;;;13.10;11.23;;;19.00;71.10;;;;;;5015149;28;20473;-78
2021/06/12 02:04:30;;;;;;;12.23;11.10;;;19.00;71.00;;;;;;5016222;28;20452;-78
2021/06/12 02:07:02;;;;;;;11.73;10.60;;;18.90;71.30;;;;;;5022216;28;20512;-76
2021/06/12 02:09:30;;;;;;;11.73;10.63;;;18.90;71.30;;;;;;5036928;28;20448;-79
2021/06/12 02:11:57;;;;;;;11.10;10.17;;;18.90;71.60;;;;;;5025574;28;20457;-77
2021/06/12 02:14:24;;;;;;;11.50;10.60;;;18.90;71.60;;;;;;5013767;28;20557;-77
2021/06/12 02:16:51;;;;;;;11.67;10.40;;;18.90;71.50;;;;;;5014310;28;20545;-77
2021/06/12 02:19:19;;;;;;;11.87;10.87;;;18.90;71.50;;;;;;5013408;28;20541;-78
2021/06/12 02:21:47;;;;;;;11.70;10.80;;;18.80;72.10;;;;;;5013092;28;20972;-76
2021/06/12 02:24:14;;;;;;;12.23;11.23;;;18.80;72.60;;;;;;5013302;28;20973;-77
2021/06/12 02:26:44;;;;;;;12.57;11.33;;;18.80;72.60;;;;;;5012927;28;20534;-78
2021/06/12 02:29:12;;;;;;;11.93;11.00;;;18.80;72.10;;;;;;4994319;28;20882;-78
2021/06/12 02:31:43;;;;;;;12.53;11.63;;;18.80;71.70;;;;;;4993817;28;20442;-78
2021/06/12 02:34:10;;;;;;;12.47;11.27;;;18.80;71.30;;;;;;5011999;28;20461;-77
2021/06/12 02:36:36;;;;;;;11.17;10.27;;;18.80;71.00;;;;;;5013202;28;20520;-77
2021/06/12 02:39:05;;;;;;;11.67;10.67;;;18.90;70.30;;;;;;5015809;28;20513;-78
2021/06/12 02:41:32;;;;;;;13.60;11.57;;;18.90;70.00;;;;;;5013265;28;20438;-77
2021/06/12 02:43:58;;;;;;;12.27;11.20;;;18.90;69.80;;;;;;5012268;28;20897;-76
2021/06/12 02:46:31;;;;;;;12.23;10.90;;;19.00;69.00;;;;;;5013161;28;20446;-76
2021/06/12 02:49:00;;;;;;;11.87;10.70;;;18.90;68.80;;;;;;5013373;28;20533;-77
2021/06/12 02:51:28;;;;;;;11.53;10.63;;;18.90;69.00;;;;;;5017976;28;20457;-77
2021/06/12 02:53:58;;;;;;;11.87;10.77;;;18.90;69.60;;;;;;5020131;28;20544;-77
2021/06/12 02:56:27;;;;;;;12.20;11.10;;;18.90;69.80;;;;;;5019687;28;20434;-76
2021/06/12 02:58:57;;;;;;;12.03;10.87;;;18.90;69.70;;;;;;5020938;28;20459;-77
2021/06/12 03:01:25;;;;;;;12.03;11.00;;;18.90;68.60;;;;;;5022039;28;20521;-78
2021/06/12 03:03:53;;;;;;;11.63;10.50;;;19.00;68.40;;;;;;5023256;28;20485;-77
2021/06/12 03:06:20;;;;;;;12.90;11.90;;;19.00;67.90;;;;;;5013078;28;20856;-77
2021/06/12 03:08:50;;;;;;;11.43;10.33;;;19.10;67.30;;;;;;5012542;28;20461;-77
2021/06/12 03:11:17;;;;;;;12.87;11.20;;;19.00;67.70;;;;;;5012950;28;20437;-77
2021/06/12 03:13:47;;;;;;;11.00;10.00;;;19.00;69.40;;;;;;5015424;28;20505;-77
2021/06/12 03:16:15;;;;;;;12.23;11.13;;;19.00;68.90;;;;;;5014160;28;20453;-77
2021/06/12 03:18:46;;;;;;;11.43;10.43;;;18.90;69.30;;;;;;5013679;28;20557;-77
2021/06/12 03:21:13;;;;;;;12.20;11.23;;;18.90;70.40;;;;;;5016766;28;20462;-77
2021/06/12 03:23:41;;;;;;;12.93;11.90;;;18.80;71.20;;;;;;5019250;28;20475;-79
2021/06/12 03:26:10;;;;;;;12.60;11.60;;;18.80;70.60;;;;;;5017612;28;20534;-76
2021/06/12 03:28:38;;;;;;;12.83;11.63;;;18.70;70.20;;;;;;5015972;28;20434;-76
2021/06/12 03:31:06;;;;;;;13.20;12.10;;;18.80;70.30;;;;;;5016200;28;20498;-76
2021/06/12 03:33:33;;;;;;;11.60;10.70;;;18.80;69.10;;;;;;5017741;28;20460;-76
2021/06/12 03:36:00;;;;;;;12.00;11.10;;;18.80;68.40;;;;;;5016406;28;20552;-76
2021/06/12 03:38:28;;;;;;;12.73;11.53;;;18.80;68.10;;;;;;5015861;28;20483;-76
2021/06/12 03:40:55;;;;;;;12.00;11.00;;;18.80;67.60;;;;;;5016125;28;20418;-76
2021/06/12 03:43:24;;;;;;;11.83;10.83;;;18.90;67.50;;;;;;5015350;28;20528;-76
2021/06/12 03:45:54;;;;;;;11.80;10.90;;;19.00;66.90;;;;;;5016177;28;20438;-77
2021/06/12 03:48:23;;;;;;;9.90;9.13;;;19.10;66.30;;;;;;5015695;28;20474;-76
2021/06/12 03:50:51;;;;;;;10.63;9.60;;;19.20;66.10;;;;;;5015881;28;20997;-75
2021/06/12 03:53:18;;;;;;;11.10;10.17;;;19.20;65.60;;;;;;5015460;28;20548;-76
2021/06/12 03:55:46;;;;;;;9.90;8.87;;;19.40;65.00;;;;;;5015454;28;20494;-76
2021/06/12 03:58:13;;;;;;;12.60;9.90;;;19.40;64.90;;;;;;5016452;28;20522;-76
2021/06/12 04:00:39;;;;;;;10.97;9.97;;;19.40;64.20;;;;;;5016573;28;20451;-77
2021/06/12 04:03:06;;;;;;;10.17;9.47;;;19.50;64.10;;;;;;5015889;28;20549;-77
2021/06/12 04:05:34;;;;;;;10.37;9.67;;;19.50;64.00;;;;;;5016053;28;20483;-77
2021/06/12 04:08:01;;;;;;;9.83;9.00;;;19.60;62.90;;;;;;5016152;28;20922;-77
2021/06/12 04:10:28;;;;;;;10.20;9.30;;;19.60;63.00;;;;;;5015925;28;20455;-77
2021/06/12 04:12:54;;;;;;;10.97;10.07;;;19.70;62.80;;;;;;5014932;28;20834;-77
2021/06/12 04:15:20;;;;;;;10.90;9.90;;;19.70;62.90;;;;;;5017084;28;20464;-76
2021/06/12 04:17:49;;;;;;;9.77;8.87;;;19.80;62.80;;;;;;5015880;28;20532;-76
2021/06/12 04:20:16;;;;;;;10.20;9.20;;;19.80;62.10;;;;;;5016101;28;20869;-76
2021/06/12 04:22:43;;;;;;;9.63;8.93;;;19.90;62.30;;;;;;5016070;28;20457;-76
2021/06/12 04:25:11;;;;;;;9.30;8.50;;;20.00;62.00;;;;;;5023377;28;20463;-76
2021/06/12 04:27:39;;;;;;;8.73;8.03;;;20.10;61.60;;;;;;5026376;28;20442;-76
2021/06/12 04:30:06;;;;;;;9.80;8.80;;;20.10;61.20;;;;;;5022644;28;20591;-77
2021/06/12 04:32:33;;;;;;;8.60;7.90;;;20.20;60.80;;;;;;5019358;28;20438;-77
2021/06/12 04:34:59;;;;;;;9.37;8.57;;;20.20;61.00;;;;;;5019528;28;20515;-77
2021/06/12 04:37:26;;;;;;;9.53;8.73;;;20.20;61.50;;;;;;5021468;28;20465;-76
2021/06/12 04:39:53;;;;;;;8.67;8.03;;;20.30;60.60;;;;;;5018113;28;20460;-77
2021/06/12 04:42:20;;;;;;;12.40;8.67;;;20.40;60.30;;;;;;5016036;28;20441;-77
2021/06/12 04:44:46;;;;;;;8.43;7.83;;;20.40;60.30;;;;;;5017294;28;20534;-78
2021/06/12 04:47:13;;;;;;;9.70;7.50;;;20.50;60.00;;;;;;5015966;28;20541;-76
2021/06/12 04:49:39;;;;;;;7.80;7.20;;;20.70;59.30;;;;;;5015486;28;20902;-76
2021/06/12 04:52:06;;;;;;;7.80;7.10;;;20.90;59.00;;;;;;5014831;28;20432;-76
2021/06/12 04:54:32;;;;;;;12.53;7.07;;;21.20;57.70;;;;;;5014279;28;20527;-76
2021/06/12 04:57:00;;;;;;;7.87;7.13;;;21.60;56.10;;;;;;5014606;28;20496;-77
2021/06/12 04:59:27;;;;;;;7.07;6.57;;;21.80;54.70;;;;;;5015025;28;20424;-76
2021/06/12 05:01:54;;;;;;;7.03;6.30;;;21.80;54.80;;;;;;5015122;28;20472;-77
2021/06/12 05:04:20;;;;;;;7.40;6.70;;;21.90;54.40;;;;;;5017141;28;20482;-76
2021/06/12 05:06:46;;;;;;;7.50;7.00;;;21.90;54.10;;;;;;5015758;28;20863;-79
2021/06/12 05:09:13;;;;;;;7.87;7.27;;;21.80;54.20;;;;;;5015639;28;20535;-78
2021/06/12 05:11:39;;;;;;;8.40;6.70;;;21.80;54.70;;;;;;5014834;28;20469;-76
2021/06/12 05:14:07;;;;;;;7.87;6.73;;;21.80;54.90;;;;;;5013363;28;20561;-76
2021/06/12 05:16:35;;;;;;;6.70;6.10;;;21.80;54.60;;;;;;5014789;28;20525;-76
2021/06/12 05:19:01;;;;;;;7.50;6.80;;;22.10;54.50;;;;;;5018965;28;20457;-76
2021/06/12 05:21:28;;;;;;;6.33;5.80;;;22.20;53.10;;;;;;5036171;28;20436;-76
2021/06/12 05:23:54;;;;;;;6.73;6.13;;;22.40;53.00;;;;;;5028342;28;20460;-76
2021/06/12 05:26:21;;;;;;;6.40;5.80;;;22.40;51.80;;;;;;5038558;28;20439;-77
2021/06/12 05:28:47;;;;;;;8.70;6.70;;;22.30;52.70;;;;;;5037269;28;20438;-77
2021/06/12 05:31:15;;;;;;;6.90;5.50;;;22.30;52.90;;;;;;5029903;28;20553;-76
2021/06/12 05:33:42;;;;;;;7.53;5.60;;;22.40;52.30;;;;;;5019438;28;20475;-77
2021/06/12 05:36:09;;;;;;;6.90;6.30;;;22.50;52.20;;;;;;5024537;28;20559;-77
2021/06/12 05:38:35;;;;;;;8.40;5.87;;;22.90;51.60;;;;;;5030316;28;20441;-76
2021/06/12 05:41:02;;;;;;;5.47;4.93;;;23.30;50.20;;;;;;5035215;28;20456;-76
2021/06/12 05:43:29;;;;;;;6.87;5.40;;;23.80;48.60;;;;;;5031934;28;20477;-75
2021/06/12 05:45:55;;;;;;;6.83;5.70;;;24.30;46.90;;;;;;5028741;28;20961;-76
2021/06/12 05:48:25;;;;;;;5.33;4.83;;;24.60;46.00;;;;;;5026168;28;20430;-76
2021/06/12 05:50:51;;;;;;;6.17;5.57;;;25.10;43.50;;;;;;5014775;28;20436;-76
2021/06/12 05:53:18;;;;;;;6.20;4.83;;;25.40;43.80;;;;;;5014292;28;20455;-77
2021/06/12 05:55:45;;;;;;;5.73;5.13;;;25.50;43.50;;;;;;5021255;28;20565;-77
2021/06/12 05:58:12;;;;;;;5.53;5.13;;;25.60;42.50;;;;;;5036640;28;20514;-79
2021/06/12 06:00:38;;;;;;;5.27;4.80;;;25.40;43.80;;;;;;5036767;28;20452;-79
2021/06/12 06:03:05;;;;;;;8.60;4.90;;;25.40;43.80;;;;;;5034966;28;20449;-78
2021/06/12 06:05:32;;;;;;;5.93;4.33;;;25.30;43.70;;;;;;5021273;28;20525;-79
2021/06/12 06:07:59;;;;;;;5.53;4.73;;;25.50;43.80;;;;;;5015448;28;20443;-78
2021/06/12 06:10:25;;;;;;;5.20;4.43;;;25.50;42.90;;;;;;5014885;28;20467;-78
2021/06/12 06:12:52;;;;;;;9.70;5.10;;;25.40;43.80;;;;;;5018103;28;20432;-77
2021/06/12 06:15:18;;;;;;;5.03;4.63;;;25.60;42.60;;;;;;5022395;28;20465;-77
2021/06/12 06:17:45;;;;;;;4.70;4.40;;;25.80;41.90;;;;;;5031573;28;21058;-78
2021/06/12 06:20:14;;;;;;;5.17;4.77;;;26.00;41.70;;;;;;5026748;28;20447;-77
2021/06/12 06:22:42;;;;;;;8.90;4.77;;;26.30;40.70;;;;;;5033559;28;20434;-77
2021/06/12 06:25:09;;;;;;;5.47;4.97;;;26.10;41.20;;;;;;5035570;28;20453;-78
2021/06/12 06:27:36;;;;;;;5.10;4.70;;;26.40;40.60;;;;;;5036455;28;20450;-78
2021/06/12 06:30:03;;;;;;;4.70;4.27;;;26.30;40.80;;;;;;5035304;28;20491;-76
2021/06/12 06:32:29;;;;;;;5.33;4.40;;;26.40;40.70;;;;;;5016292;28;20763;-78
2021/06/12 06:34:56;;;;;;;4.53;4.20;;;26.70;39.60;;;;;;5014804;28;20564;-79
2021/06/12 06:37:22;;;;;;;4.80;4.30;;;26.80;40.40;;;;;;5014398;28;20502;-79
2021/06/12 06:39:50;;;;;;;5.03;4.07;;;26.70;39.50;;;;;;5015312;28;20421;-79
2021/06/12 06:42:16;;;;;;;4.70;4.37;;;27.00;38.90;;;;;;5015331;28;20451;-78
2021/06/12 06:44:43;;;;;;;4.93;4.53;;;27.20;38.10;;;;;;5013922;28;20474;-78
2021/06/12 06:47:09;;;;;;;4.87;4.47;;;26.50;39.60;;;;;;5013635;28;20551;-76
2021/06/12 06:49:36;;;;;;;5.50;5.10;;;26.20;40.90;;;;;;5015141;28;20436;-78
2021/06/12 06:52:03;;;;;;;5.13;4.77;;;26.20;41.00;;;;;;5014481;28;20968;-78
2021/06/12 06:54:30;;;;;;;4.97;4.57;;;26.30;41.10;;;;;;5016364;28;20513;-77
2021/06/12 06:56:57;;;;;;;6.83;5.33;;;26.10;41.50;;;;;;5017764;28;20506;-78
2021/06/12 06:59:24;;;;;;;5.13;4.70;;;25.70;42.30;;;;;;5017775;28;20496;-78
2021/06/12 07:01:50;;;;;;;5.80;4.73;;;25.20;43.60;;;;;;5016951;28;20484;-77
2021/06/12 07:04:17;;;;;;;5.10;4.70;;;24.60;44.30;;;;;;5018219;28;20509;-77
2021/06/12 07:06:43;;;;;;;6.10;5.53;;;24.30;45.60;;;;;;5019099;28;20455;-78
2021/06/12 07:09:10;;;;;;;5.63;5.13;;;24.30;46.00;;;;;;5017521;28;20854;-77
2021/06/12 07:11:36;;;;;;;5.60;5.20;;;24.20;46.40;;;;;;5019568;28;20510;-78
2021/06/12 07:14:04;;;;;;;5.90;4.83;;;23.90;46.70;;;;;;5017182;28;20486;-78
2021/06/12 07:16:30;;;;;;;6.63;5.67;;;23.90;47.50;;;;;;5018466;28;20476;-77
2021/06/12 07:18:57;;;;;;;5.80;5.30;;;24.20;47.00;;;;;;5023460;28;20463;-78
2021/06/12 07:21:24;;;;;;;5.83;5.30;;;24.50;46.40;;;;;;5017278;28;20486;-78
2021/06/12 07:23:50;;;;;;;7.37;6.37;;;24.60;46.10;;;;;;5016452;28;20476;-78
2021/06/12 07:26:16;;;;;;;7.43;6.73;;;24.50;46.30;;;;;;5016935;28;20487;-77
2021/06/12 07:28:43;;;;;;;7.23;6.63;;;24.50;46.60;;;;;;5016866;28;20494;-78
2021/06/12 07:31:11;;;;;;;7.57;5.93;;;24.50;47.30;;;;;;5017322;28;20970;-78
2021/06/12 07:33:37;;;;;;;8.80;8.00;;;24.60;46.70;;;;;;5022277;28;20455;-79
2021/06/12 07:36:04;;;;;;;7.73;7.13;;;24.50;46.30;;;;;;5027029;28;20582;-77
2021/06/12 07:38:30;;;;;;;8.27;7.10;;;24.40;46.80;;;;;;5021976;28;20432;-77
2021/06/12 07:40:57;;;;;;;9.87;7.57;;;24.50;46.90;;;;;;5021000;28;20471;-78
2021/06/12 07:43:23;;;;;;;11.60;8.30;;;24.50;46.50;;;;;;5020489;28;20487;-77
2021/06/12 07:45:50;;;;;;;8.60;7.80;;;24.60;46.70;;;;;;5016936;28;20453;-78
2021/06/12 07:48:18;;;;;;;8.60;7.80;;;24.50;46.90;;;;;;5016018;28;20517;-78
2021/06/12 07:50:45;;;;;;;8.17;7.47;;;24.80;46.70;;;;;;5016146;28;21017;-78
2021/06/12 07:53:11;;;;;;;8.30;7.20;;;24.90;46.20;;;;;;5015491;28;20507;-78
2021/06/12 07:55:37;;;;;;;6.93;6.30;;;24.80;47.00;;;;;;5016293;28;20587;-78
2021/06/12 07:58:04;;;;;;;7.17;6.50;;;24.90;46.80;;;;;;5016207;28;21039;-78
2021/06/12 08:00:31;;;;;;;8.60;5.67;;;25.20;46.10;;;;;;5018164;28;20443;-78
2021/06/12 08:02:57;;;;;;;5.60;5.10;;;25.20;46.40;;;;;;5016681;28;20433;-77
2021/06/12 08:05:26;;;;;;;5.70;5.30;;;25.30;45.90;;;;;;5025131;28;20460;-82
2021/06/12 08:07:52;;;;;;;5.73;5.23;;;25.10;45.80;;;;;;5019036;28;20963;-78
2021/06/12 08:10:19;;;;;;;7.70;4.63;;;25.10;46.10;;;;;;5018013;28;20557;-78
2021/06/12 08:12:45;;;;;;;7.37;4.80;;;25.30;46.20;;;;;;5022725;28;20459;-78
2021/06/12 08:15:13;;;;;;;5.50;4.13;;;25.40;45.90;;;;;;5027406;28;20459;-78
2021/06/12 08:17:40;;;;;;;4.50;4.10;;;25.50;45.80;;;;;;5027604;28;20462;-79
2021/06/12 08:20:07;;;;;;;4.90;4.50;;;25.70;45.30;;;;;;5034783;28;20425;-79
2021/06/12 08:22:35;;;;;;;4.80;4.10;;;25.90;44.10;;;;;;5032875;28;20442;-80
2021/06/12 08:25:02;;;;;;;4.43;4.03;;;26.10;44.20;;;;;;5024630;28;20984;-80
2021/06/12 08:27:29;;;;;;;3.93;3.63;;;26.30;44.40;;;;;;5027933;28;20473;-79
2021/06/12 08:29:55;;;;;;;5.03;4.00;;;26.30;44.40;;;;;;5031289;28;20432;-80
2021/06/12 08:32:22;;;;;;;4.17;3.77;;;26.60;43.50;;;;;;5029468;28;20463;-79
2021/06/12 08:34:49;;;;;;;6.20;3.70;;;26.40;44.50;;;;;;5027132;28;20484;-80
2021/06/12 08:37:15;;;;;;;4.33;3.50;;;26.40;44.50;;;;;;5028366;28;20470;-80
2021/06/12 08:39:43;;;;;;;4.93;4.53;;;26.60;43.90;;;;;;5024720;28;20433;-80
2021/06/12 08:42:10;;;;;;;4.50;3.73;;;26.70;43.00;;;;;;5024003;28;20445;-80
2021/06/12 08:44:36;;;;;;;4.90;4.50;;;26.70;43.40;;;;;;5019580;28;20997;-79
2021/06/12 08:47:04;;;;;;;5.63;3.50;;;27.00;42.10;;;;;;5020191;28;20491;-81
2021/06/12 08:49:30;;;;;;;5.67;4.00;;;27.20;42.20;;;;;;5021341;28;20482;-81
2021/06/12 08:51:57;;;;;;;4.23;3.20;;;27.40;41.40;;;;;;5020129;28;20475;-81
2021/06/12 08:54:26;;;;;;;4.03;3.00;;;27.60;41.00;;;;;;5009317;28;20455;-81
2021/06/12 08:56:55;;;;;;;6.53;3.63;;;27.80;40.30;;;;;;4985475;28;20455;-81
2021/06/12 08:59:22;;;;;;;3.90;3.50;;;27.80;40.10;;;;;;4985795;28;20469;-80
2021/06/12 09:01:49;;;;;;;3.90;3.60;;;27.80;39.80;;;;;;4982113;28;20463;-81
2021/06/12 09:04:27;;;;;;;5.23;3.47;;;27.80;40.10;;;;;;4986106;28;20971;-81
2021/06/12 09:07:21;;;;;;;6.67;4.57;;;27.60;40.40;;;;;;4983562;28;20461;-80
2021/06/12 09:09:49;;;;;;;7.63;4.40;;;27.60;40.50;;;;;;4982911;28;20708;-80
2021/06/12 09:12:17;;;;;;;15.33;4.50;;;27.70;40.20;;;;;;4976581;28;20465;-79
2021/06/12 09:15:04;;;;;;;7.50;4.17;;;27.60;40.20;;;;;;4975446;28;20485;-80
2021/06/12 09:20:43;;;;;;;5.40;5.00;;;27.40;40.30;;;;;;4984714;28;20514;-78
2021/06/12 09:23:12;;;;;;;4.87;4.03;;;27.30;40.00;;;;;;4978408;28;20455;-80
2021/06/12 09:25:40;;;;;;;4.63;4.23;;;27.30;40.60;;;;;;4979361;28;20467;-80
2021/06/12 09:28:08;;;;;;;5.33;4.27;;;27.20;39.90;;;;;;4986553;28;20435;-79
2021/06/12 09:30:35;;;;;;;4.53;3.60;;;27.20;40.30;;;;;;4983592;28;20457;-80
2021/06/12 09:33:02;;;;;;;3.83;3.53;;;27.30;40.00;;;;;;4981955;28;20942;-77
2021/06/12 09:35:33;;;;;;;3.90;3.60;;;27.40;39.60;;;;;;4974987;28;20487;-76
2021/06/12 09:38:00;;;;;;;5.50;4.50;;;27.50;40.20;;;;;;4978596;28;20433;-78
2021/06/12 09:40:32;;;;;;;4.30;4.00;;;27.60;38.40;;;;;;4980452;28;20495;-77
2021/06/12 09:43:01;;;;;;;4.27;3.87;;;27.50;38.20;;;;;;4980945;28;20434;-77
2021/06/12 09:45:30;;;;;;;5.20;3.97;;;27.30;38.90;;;;;;4978357;28;20449;-77
2021/06/12 09:48:08;;;;;;;4.20;3.80;;;27.30;39.40;;;;;;4975707;28;20443;-75
2021/06/12 09:50:34;;;;;;;4.63;4.20;;;27.60;39.00;;;;;;4975669;28;20468;-77
2021/06/12 09:53:11;;;;;;;4.80;4.40;;;27.70;38.40;;;;;;4975542;28;20834;-77
2021/06/12 09:55:37;;;;;;;4.30;4.00;;;27.80;37.80;;;;;;4963019;28;20927;-77
2021/06/12 09:58:05;;;;;;;3.60;3.30;;;27.80;37.10;;;;;;4956750;28;20552;-77
2021/06/12 10:00:35;;;;;;;4.53;4.10;;;27.60;38.10;;;;;;4966233;28;20442;-78
2021/06/12 10:03:02;;;;;;;9.40;4.40;;;27.40;38.10;;;;;;4976031;28;20523;-76
2021/06/12 10:05:29;;;;;;;4.50;3.57;;;27.10;38.70;;;;;;4980501;28;20511;-77
2021/06/12 10:07:56;;;;;;;3.90;3.70;;;27.00;39.00;;;;;;4991726;28;20427;-78
2021/06/12 10:10:23;;;;;;;4.47;4.03;;;27.00;39.50;;;;;;4987936;28;20607;-77
2021/06/12 10:12:51;;;;;;;6.70;4.27;;;27.20;38.60;;;;;;4989495;28;20479;-77
2021/06/12 10:15:18;;;;;;;5.00;4.23;;;27.20;39.30;;;;;;4986989;28;20527;-78
2021/06/12 10:17:48;;;;;;;4.33;3.93;;;27.20;38.70;;;;;;4981523;28;20428;-78
2021/06/12 10:20:18;;;;;;;5.50;3.63;;;27.20;39.20;;;;;;4984644;28;20490;-76
2021/06/12 10:22:46;;;;;;;10.47;3.70;;;27.20;39.00;;;;;;4982096;28;20435;-78
2021/06/12 10:25:15;;;;;;;4.90;3.70;;;27.30;38.70;;;;;;4979725;28;20468;-78
2021/06/12 10:27:42;;;;;;;4.50;4.03;;;27.50;38.30;;;;;;4976394;28;20956;-77
2021/06/12 10:30:11;;;;;;;4.83;3.47;;;27.80;37.90;;;;;;4977126;28;20894;-77
2021/06/12 10:32:42;;;;;;;3.73;3.43;;;28.30;37.10;;;;;;4975986;28;20943;-77
2021/06/12 10:35:11;;;;;;;5.67;3.53;;;28.70;35.70;;;;;;4979068;28;20549;-78
2021/06/12 10:38:29;;;;;;;5.13;4.23;;;28.80;35.80;;;;;;4981609;28;20449;-78
2021/06/12 10:40:56;;;;;;;7.53;3.83;;;28.30;35.50;;;;;;4981036;28;20441;-79
2021/06/12 10:43:25;;;;;;;4.00;3.60;;;28.20;35.40;;;;;;4977041;28;20478;-78
2021/06/12 10:46:15;;;;;;;3.90;3.60;;;28.20;35.40;;;;;;4978224;28;20454;-78
2021/06/12 10:48:46;;;;;;;3.43;3.13;;;28.30;35.50;;;;;;4985277;28;20960;-78
2021/06/12 10:51:27;;;;;;;4.53;3.40;;;28.20;34.50;;;;;;4979597;28;20480;-77
2021/06/12 10:54:19;;;;;;;3.53;3.23;;;28.00;35.00;;;;;;4977228;28;20504;-78
2021/06/12 10:56:47;;;;;;;5.83;3.20;;;28.00;34.40;;;;;;4976982;28;20948;-77
2021/06/12 10:59:33;;;;;;;5.37;3.40;;;27.90;34.20;;;;;;4978119;28;20499;-78
2021/06/12 11:02:03;;;;;;;4.50;3.07;;;28.00;33.80;;;;;;4977033;28;20558;-76
2021/06/12 11:04:41;;;;;;;4.03;2.80;;;28.30;33.70;;;;;;4977959;28;20496;-78
2021/06/12 11:07:24;;;;;;;7.27;2.77;;;28.30;32.80;;;;;;4977768;28;20464;-77
2021/06/12 11:09:50;;;;;;;8.27;3.27;;;27.90;33.10;;;;;;4962620;28;20501;-78
2021/06/12 11:12:37;;;;;;;6.50;3.30;;;28.10;33.90;;;;;;4963881;28;20438;-78
2021/06/12 11:15:07;;;;;;;4.17;3.20;;;28.30;33.00;;;;;;4982237;28;20506;-78
2021/06/12 11:17:34;;;;;;;4.30;2.73;;;28.60;32.00;;;;;;4976575;28;20437;-78
2021/06/12 11:20:29;;;;;;;4.90;2.30;;;29.00;31.60;;;;;;4979590;28;20459;-79
2021/06/12 11:23:03;;;;;;;3.27;3.00;;;29.10;30.80;;;;;;4980260;28;20457;-78
2021/06/12 11:25:56;;;;;;;2.57;2.37;;;28.80;30.60;;;;;;4984082;28;20540;-83
2021/06/12 11:28:36;;;;;;;2.23;2.13;;;28.90;30.80;;;;;;4988389;28;20466;-85
2021/06/12 11:31:28;;;;;;;2.37;2.27;;;28.80;30.30;;;;;;4976534;28;20467;-84
2021/06/12 11:34:26;;;;;;;2.90;2.30;;;28.60;31.40;;;;;;4989598;28;20482;-84
2021/06/12 11:37:16;;;;;;;2.30;2.20;;;28.70;30.20;;;;;;4991226;28;21001;-84
2021/06/12 11:39:49;;;;;;;2.60;2.40;;;28.60;30.00;;;;;;4992703;28;20471;-85
2021/06/12 11:42:16;;;;;;;3.07;2.83;;;28.80;30.50;;;;;;4998625;28;20457;-86
2021/06/12 11:44:43;;;;;;;8.40;2.57;;;29.00;30.20;;;;;;4983620;28;20479;-84
2021/06/12 11:47:09;;;;;;;3.40;2.30;;;29.40;29.50;;;;;;4984949;28;20455;-85
2021/06/12 11:49:47;;;;;;;4.00;2.07;;;29.30;30.00;;;;;;4975027;28;20475;-85
2021/06/12 11:52:14;;;;;;;2.83;2.63;;;29.50;29.70;;;;;;4979997;28;20424;-84
2021/06/12 11:54:46;;;;;;;2.80;2.40;;;29.00;30.20;;;;;;4994020;28;20500;-85
2021/06/12 11:57:14;;;;;;;18.93;3.00;;;28.60;31.40;;;;;;4992935;28;20449;-84
2021/06/12 11:59:41;;;;;;;2.53;2.33;;;28.80;30.50;;;;;;4992680;28;20461;-86
2021/06/12 12:02:08;;;;;;;3.33;2.30;;;29.00;30.40;;;;;;4993013;28;20451;-85
2021/06/12 12:04:36;;;;;;;2.63;2.40;;;29.40;29.40;;;;;;4993625;28;20467;-85
2021/06/12 12:07:05;;;;;;;2.83;2.50;;;29.60;29.00;;;;;;4989586;28;20836;-84
2021/06/12 12:09:34;;;;;;;1.77;1.63;;;29.50;28.90;;;;;;4989277;28;20462;-84
2021/06/12 12:12:03;;;;;;;2.50;2.30;;;29.20;28.90;;;;;;4992130;28;20476;-84
2021/06/12 12:14:33;;;;;;;2.23;2.13;;;29.20;29.00;;;;;;4985815;28;20479;-85
2021/06/12 12:17:01;;;;;;;3.40;1.53;;;29.40;28.90;;;;;;4986416;28;20489;-84
2021/06/12 12:19:28;;;;;;;6.50;1.80;;;29.30;27.30;;;;;;4991514;28;20575;-86
2021/06/12 12:21:55;;;;;;;2.00;1.90;;;29.00;27.40;;;;;;4983169;28;20975;-84
2021/06/12 12:24:22;;;;;;;2.23;1.63;;;29.10;28.30;;;;;;4975453;28;20474;-85
2021/06/12 12:26:55;;;;;;;3.00;2.20;;;29.50;28.00;;;;;;4985010;28;20452;-86
2021/06/12 12:29:23;;;;;;;1.33;1.33;;;29.80;26.90;;;;;;4983866;28;20438;-86
2021/06/12 12:31:52;;;;;;;2.20;2.00;;;29.90;26.90;;;;;;4999528;28;20468;-85
2021/06/12 12:34:31;;;;;;;3.47;1.80;;;29.90;26.90;;;;;;4997871;28;20469;-85
2021/06/12 12:36:59;;;;;;;2.10;1.80;;;29.90;26.90;;;;;;4997766;28;20486;-84
2021/06/12 12:39:36;;;;;;;1.90;1.80;;;29.80;26.90;;;;;;4997349;28;20467;-87
2021/06/12 12:42:03;;;;;;;1.70;1.60;;;29.90;26.90;;;;;;4991547;28;20461;-83
2021/06/12 12:44:29;;;;;;;2.60;1.53;;;30.10;25.80;;;;;;4987567;28;20453;-84
2021/06/12 12:46:57;;;;;;;1.80;1.70;;;30.20;25.60;;;;;;4985502;28;20459;-84
2021/06/12 12:49:26;;;;;;;6.93;2.27;;;30.10;26.30;;;;;;4996274;28;20454;-84
2021/06/12 13:05:12;;;;;;;1.87;1.77;;;30.10;25.60;;;;;;5149704;27;20339;-83
2021/06/12 13:07:39;;;;;;;2.37;1.33;;;29.90;26.90;;;;;;5125543;28;20442;-83